createdAt,value
2018-11-26T00:00:47.386Z,90.87
2018-11-26T00:03:22.149Z,91.23
2018-11-26T00:05:56.814Z,90.98
2018-11-26T00:08:34.885Z,91.26
2018-11-26T00:11:43.913Z,91.14
2018-11-26T00:14:18.378Z,91.09
2018-11-26T00:16:52.912Z,91.03
2018-11-26T00:19:27.300Z,90.68
2018-11-26T00:22:02.014Z,90.99
2018-11-26T00:24:36.488Z,91.36
2018-11-26T00:27:11.682Z,91.56
2018-11-26T00:29:46.941Z,91.54
2018-11-26T00:32:21.246Z,91.38
2018-11-26T00:34:55.674Z,91.31
2018-11-26T00:37:30.542Z,91.33
2018-11-26T00:40:06.450Z,90.95
2018-11-26T00:42:40.874Z,91.08
2018-11-26T00:45:15.385Z,91.05
2018-11-26T00:47:50.110Z,90.94
2018-11-26T00:50:24.861Z,91.01
2018-11-26T00:52:59.540Z,91.19
2018-11-26T00:55:34.031Z,90.95
2018-11-26T00:58:08.472Z,91.05
2018-11-26T01:00:43.097Z,90.99
2018-11-26T01:03:17.953Z,91.34
2018-11-26T01:05:52.272Z,91.61
2018-11-26T01:08:26.857Z,91.40
2018-11-26T01:11:01.366Z,91.36
2018-11-26T01:13:35.977Z,91.41
2018-11-26T01:16:10.578Z,91.44
2018-11-26T01:18:45.090Z,91.41
2018-11-26T01:21:19.789Z,91.76
2018-11-26T01:23:54.285Z,91.34
2018-11-26T01:26:28.823Z,91.29
2018-11-26T01:29:03.591Z,91.21
2018-11-26T01:31:38.013Z,91.18
2018-11-26T01:34:12.289Z,91.24
2018-11-26T01:36:46.873Z,91.54
2018-11-26T01:39:21.717Z,91.74
2018-11-26T01:41:56.833Z,91.55
2018-11-26T01:44:31.355Z,91.63
2018-11-26T01:47:06.466Z,91.05
2018-11-26T01:49:41.001Z,91.67
2018-11-26T01:52:16.057Z,91.79
2018-11-26T01:54:50.401Z,91.75
2018-11-26T01:57:24.957Z,91.83
2018-11-26T02:00:00.439Z,91.79
2018-11-26T02:02:35.185Z,91.53
2018-11-26T02:05:09.659Z,91.60
2018-11-26T02:07:44.813Z,91.61
2018-11-26T02:10:20.452Z,91.71
2018-11-26T02:12:54.790Z,91.47
2018-11-26T02:15:39.329Z,91.63
2018-11-26T02:18:14.289Z,91.34
2018-11-26T02:20:49.109Z,91.40
2018-11-26T02:23:24.149Z,91.57
2018-11-26T02:25:58.817Z,91.68
2018-11-26T02:28:33.157Z,92.22
2018-11-26T02:31:08.153Z,91.85
2018-11-26T02:33:42.841Z,91.80
2018-11-26T02:36:17.789Z,92.07
2018-11-26T02:38:52.117Z,91.59
2018-11-26T02:41:26.896Z,91.90
2018-11-26T02:44:01.554Z,91.95
2018-11-26T02:46:36.517Z,91.74
2018-11-26T02:49:11.026Z,91.44
2018-11-26T02:51:45.672Z,91.51
2018-11-26T02:54:20.649Z,91.71
2018-11-26T02:56:55.249Z,91.49
2018-11-26T02:59:29.860Z,91.32
2018-11-26T03:02:04.679Z,91.86
2018-11-26T03:04:39.564Z,91.61
2018-11-26T03:07:14.040Z,91.85
2018-11-26T03:09:48.546Z,91.79
2018-11-26T03:12:23.286Z,91.24
2018-11-26T03:14:57.830Z,91.29
2018-11-26T03:17:32.654Z,90.96
2018-11-26T03:20:08.428Z,91.32
2018-11-26T03:22:43.388Z,91.06
2018-11-26T03:25:18.453Z,90.99
2018-11-26T03:27:53.094Z,91.26
2018-11-26T03:30:27.831Z,91.31
2018-11-26T03:33:02.786Z,91.47
2018-11-26T03:35:37.440Z,91.38
2018-11-26T03:38:14.386Z,91.32
2018-11-26T03:40:48.673Z,91.06
2018-11-26T03:43:22.960Z,91.10
2018-11-26T03:45:57.662Z,91.50
2018-11-26T03:48:32.465Z,91.54
2018-11-26T03:51:07.247Z,91.59
2018-11-26T03:53:41.825Z,91.38
2018-11-26T03:56:16.766Z,91.70
2018-11-26T03:58:51.433Z,91.52
2018-11-26T04:01:26.201Z,91.56
2018-11-26T04:04:01.001Z,91.76
2018-11-26T04:06:36.125Z,91.47
2018-11-26T04:09:10.674Z,91.40
2018-11-26T04:11:45.275Z,91.24
2018-11-26T04:14:19.968Z,91.58
2018-11-26T04:16:54.509Z,91.42
2018-11-26T04:19:29.059Z,91.17
2018-11-26T04:22:04.516Z,91.63
2018-11-26T04:24:39.262Z,91.12
2018-11-26T04:27:13.749Z,91.43
2018-11-26T04:29:48.158Z,91.58
2018-11-26T04:32:22.513Z,91.23
2018-11-26T04:34:57.109Z,91.54
2018-11-26T04:37:31.565Z,92.00
2018-11-26T04:40:09.262Z,92.08
2018-11-26T04:42:43.684Z,91.81
2018-11-26T04:45:18.337Z,91.61
2018-11-26T04:47:53.142Z,91.64
2018-11-26T04:50:27.646Z,91.38
2018-11-26T04:53:02.834Z,91.06
2018-11-26T04:55:37.967Z,90.90
2018-11-26T04:58:12.534Z,91.25
2018-11-26T05:00:46.932Z,91.54
2018-11-26T05:03:21.634Z,91.21
2018-11-26T05:05:56.272Z,90.70
2018-11-26T05:08:30.776Z,90.86
2018-11-26T05:11:05.746Z,91.25
2018-11-26T05:13:40.122Z,91.24
2018-11-26T05:16:14.638Z,91.43
2018-11-26T05:18:49.078Z,91.20
2018-11-26T05:21:24.461Z,91.36
2018-11-26T05:23:58.906Z,90.93
2018-11-26T05:26:33.213Z,90.80
2018-11-26T05:29:07.867Z,90.61
2018-11-26T05:31:42.580Z,90.19
2018-11-26T05:34:17.050Z,90.64
2018-11-26T05:36:51.378Z,90.86
2018-11-26T05:39:25.937Z,91.09
2018-11-26T05:42:00.462Z,90.88
2018-11-26T05:44:35.073Z,90.71
2018-11-26T05:47:09.634Z,90.72
2018-11-26T05:49:44.114Z,91.05
2018-11-26T05:52:18.428Z,90.77
2018-11-26T05:54:53.450Z,90.60
2018-11-26T05:57:28.030Z,90.29
2018-11-26T06:00:03.129Z,90.42
2018-11-26T06:02:38.124Z,90.61
2018-11-26T06:05:13.027Z,90.51
2018-11-26T06:07:47.539Z,90.42
2018-11-26T06:10:22.245Z,90.51
2018-11-26T06:12:57.270Z,90.33
2018-11-26T06:15:31.754Z,90.53
2018-11-26T06:18:06.090Z,90.54
2018-11-26T06:20:40.607Z,90.41
2018-11-26T06:23:15.400Z,90.82
2018-11-26T06:25:50.247Z,90.70
2018-11-26T06:28:24.866Z,90.68
2018-11-26T06:30:59.694Z,90.42
2018-11-26T06:33:34.312Z,90.48
2018-11-26T06:36:08.970Z,90.30
2018-11-26T06:38:43.435Z,90.25
2018-11-26T06:41:17.709Z,90.16
2018-11-26T06:43:52.334Z,90.53
2018-11-26T06:46:26.766Z,90.75
2018-11-26T06:49:01.783Z,90.68
2018-11-26T06:51:36.071Z,90.50
2018-11-26T06:54:10.605Z,90.56
2018-11-26T06:56:45.149Z,90.51
2018-11-26T06:59:19.549Z,90.39
2018-11-26T07:01:53.991Z,90.64
2018-11-26T07:04:28.720Z,90.50
2018-11-26T07:07:03.601Z,90.14
2018-11-26T07:09:38.369Z,89.95
2018-11-26T07:12:13.289Z,90.05
2018-11-26T07:14:47.682Z,89.93
2018-11-26T07:17:22.486Z,90.39
2018-11-26T07:19:56.984Z,90.55
2018-11-26T07:22:31.305Z,90.30
2018-11-26T07:25:09.499Z,90.08
2018-11-26T07:27:44.903Z,90.12
2018-11-26T07:30:22.120Z,90.15
2018-11-26T07:32:57.099Z,90.32
2018-11-26T07:35:32.542Z,90.04
2018-11-26T07:38:07.515Z,89.83
2018-11-26T07:40:42.507Z,89.90
2018-11-26T07:43:16.954Z,89.92
2018-11-26T07:45:51.401Z,90.23
2018-11-26T07:48:26.102Z,90.00
2018-11-26T07:51:00.953Z,89.79
2018-11-26T07:53:35.689Z,89.70
2018-11-26T07:56:10.560Z,89.54
2018-11-26T07:58:44.924Z,89.43
2018-11-26T08:01:19.403Z,89.00
2018-11-26T08:03:53.969Z,88.87
2018-11-26T08:06:28.345Z,89.08
2018-11-26T08:09:03.573Z,88.98
2018-11-26T08:11:38.081Z,88.82
2018-11-26T08:14:13.230Z,89.03
2018-11-26T08:16:47.529Z,89.06
2018-11-26T08:19:22.550Z,88.91
2018-11-26T08:21:57.478Z,88.21
2018-11-26T08:24:32.477Z,88.97
2018-11-26T08:27:06.887Z,88.93
2018-11-26T08:29:42.469Z,88.81
2018-11-26T08:32:16.746Z,88.95
2018-11-26T08:34:51.218Z,88.72
2018-11-26T08:37:31.229Z,88.46
2018-11-26T08:40:12.422Z,88.05
2018-11-26T08:42:51.531Z,87.04
2018-11-26T08:45:34.543Z,87.45
2018-11-26T08:48:14.271Z,87.52
2018-11-26T08:50:49.030Z,87.12
2018-11-26T08:53:23.986Z,86.99
2018-11-26T08:55:58.505Z,86.63
2018-11-26T08:58:33.653Z,86.91
2018-11-26T09:01:12.546Z,86.34
2018-11-26T09:04:02.349Z,86.73
2018-11-26T09:06:37.142Z,87.92
2018-11-26T09:09:11.614Z,87.06
2018-11-26T09:11:46.465Z,87.00
2018-11-26T09:14:21.145Z,86.95
2018-11-26T09:16:55.636Z,86.10
2018-11-26T09:19:30.660Z,86.34
2018-11-26T09:22:05.449Z,86.79
2018-11-26T09:24:40.321Z,86.80
2018-11-26T09:27:14.721Z,86.20
2018-11-26T09:29:49.114Z,86.71
2018-11-26T09:32:23.561Z,86.22
2018-11-26T09:34:58.021Z,85.57
2018-11-26T09:37:32.438Z,84.93
2018-11-26T09:40:09.891Z,85.65
2018-11-26T09:42:44.537Z,86.61
2018-11-26T09:45:19.514Z,87.47
2018-11-26T09:47:54.025Z,87.94
2018-11-26T09:50:28.851Z,87.11
2018-11-26T09:53:04.043Z,85.77
2018-11-26T09:55:38.347Z,84.12
2018-11-26T09:58:12.709Z,84.43
2018-11-26T10:00:47.177Z,84.09
2018-11-26T10:03:21.754Z,84.11
2018-11-26T10:05:56.443Z,84.93
2018-11-26T10:08:31.277Z,84.70
2018-11-26T10:11:05.884Z,85.70
2018-11-26T10:13:40.657Z,85.75
2018-11-26T10:16:14.898Z,85.98
2018-11-26T10:18:49.395Z,86.24
2018-11-26T10:21:23.773Z,86.03
2018-11-26T10:23:58.606Z,86.67
2018-11-26T10:26:32.981Z,87.38
2018-11-26T10:29:07.979Z,86.88
2018-11-26T10:31:42.378Z,85.84
2018-11-26T10:34:17.190Z,85.30
2018-11-26T10:36:52.618Z,85.29
2018-11-26T10:39:27.124Z,85.48
2018-11-26T10:42:01.807Z,84.86
2018-11-26T10:44:36.252Z,85.23
2018-11-26T10:47:10.796Z,85.34
2018-11-26T10:49:45.266Z,85.14
2018-11-26T10:52:19.773Z,84.91
2018-11-26T10:54:54.428Z,83.94
2018-11-26T10:57:28.950Z,83.90
2018-11-26T11:00:04.230Z,84.25
2018-11-26T11:02:42.192Z,84.36
2018-11-26T11:05:16.693Z,84.38
2018-11-26T11:07:51.532Z,84.01
2018-11-26T11:10:29.224Z,83.53
2018-11-26T11:13:03.951Z,82.95
2018-11-26T11:15:39.160Z,83.19
2018-11-26T11:18:14.312Z,83.18
2018-11-26T11:20:49.146Z,83.31
2018-11-26T11:23:23.991Z,83.40
2018-11-26T11:25:58.705Z,83.33
2018-11-26T11:28:33.208Z,83.05
2018-11-26T11:31:07.702Z,82.77
2018-11-26T11:33:42.135Z,82.45
2018-11-26T11:36:16.391Z,82.09
2018-11-26T11:38:50.831Z,82.89
2018-11-26T11:41:25.390Z,82.58
2018-11-26T11:44:00.094Z,82.64
2018-11-26T11:46:34.963Z,81.62
2018-11-26T11:49:09.446Z,82.03
2018-11-26T11:51:44.118Z,81.70
2018-11-26T11:54:18.388Z,82.66
2018-11-26T11:56:52.783Z,82.96
2018-11-26T11:59:27.311Z,82.63
2018-11-26T12:02:02.198Z,82.20
2018-11-26T12:04:36.695Z,82.31
2018-11-26T12:07:11.446Z,81.88
2018-11-26T12:09:45.845Z,83.01
2018-11-26T12:12:20.462Z,82.61
2018-11-26T12:14:55.203Z,82.57
2018-11-26T12:17:29.738Z,81.65
2018-11-26T12:20:04.602Z,82.43
2018-11-26T12:22:39.863Z,82.39
2018-11-26T12:25:18.378Z,82.01
2018-11-26T12:27:52.726Z,82.65
2018-11-26T12:30:29.528Z,83.09
2018-11-26T12:33:04.022Z,82.57
2018-11-26T12:35:38.269Z,82.70
2018-11-26T12:38:12.750Z,83.19
2018-11-26T12:40:47.086Z,83.08
2018-11-26T12:43:21.752Z,83.03
2018-11-26T12:45:56.488Z,83.15
2018-11-26T12:48:30.977Z,82.98
2018-11-26T12:51:05.695Z,83.13
2018-11-26T12:53:40.204Z,82.97
2018-11-26T12:56:14.926Z,83.08
2018-11-26T12:58:49.278Z,82.57
2018-11-26T13:01:24.108Z,82.65
2018-11-26T13:03:58.371Z,82.77
2018-11-26T13:06:33.518Z,83.16
2018-11-26T13:09:08.649Z,83.26
2018-11-26T13:11:43.251Z,83.26
2018-11-26T13:14:17.715Z,83.70
2018-11-26T13:16:52.367Z,83.58
2018-11-26T13:19:26.808Z,84.02
2018-11-26T13:22:01.547Z,84.08
2018-11-26T13:24:36.327Z,84.16
2018-11-26T13:27:11.097Z,85.07
2018-11-26T13:29:45.695Z,84.88
2018-11-26T13:32:19.985Z,84.96
2018-11-26T13:34:54.499Z,85.34
2018-11-26T13:37:29.164Z,85.45
2018-11-26T13:40:04.709Z,85.41
2018-11-26T13:42:39.630Z,84.87
2018-11-26T13:45:17.905Z,85.05
2018-11-26T13:47:52.766Z,84.67
2018-11-26T13:50:31.594Z,84.72
2018-11-26T13:53:06.653Z,84.91
2018-11-26T13:55:41.634Z,85.08
2018-11-26T13:58:16.774Z,85.26
2018-11-26T14:00:51.762Z,85.53
2018-11-26T14:03:26.443Z,85.32
2018-11-26T14:06:00.986Z,85.69
2018-11-26T14:08:35.419Z,85.12
2018-11-26T14:11:10.006Z,84.96
2018-11-26T14:13:44.414Z,85.05
2018-11-26T14:16:19.135Z,85.19
2018-11-26T14:18:53.770Z,85.26
2018-11-26T14:21:28.284Z,85.31
2018-11-26T14:24:03.171Z,85.12
2018-11-26T14:26:37.506Z,85.36
2018-11-26T14:29:12.063Z,85.45
2018-11-26T14:31:46.595Z,85.35
2018-11-26T14:34:21.118Z,85.61
2018-11-26T14:36:55.943Z,85.91
2018-11-26T14:39:30.309Z,85.72
2018-11-26T14:42:05.526Z,85.38
2018-11-26T14:44:40.097Z,85.63
2018-11-26T14:47:14.539Z,85.87
2018-11-26T14:49:49.303Z,86.26
2018-11-26T14:52:24.611Z,86.02
2018-11-26T14:54:59.015Z,86.01
2018-11-26T14:57:35.268Z,86.21
2018-11-26T15:00:25.227Z,86.23
2018-11-26T15:03:06.559Z,86.63
2018-11-26T15:05:41.170Z,86.72
2018-11-26T15:08:26.083Z,86.59
2018-11-26T15:11:02.107Z,86.90
2018-11-26T15:13:36.710Z,86.97
2018-11-26T15:16:11.930Z,87.02
2018-11-26T15:18:46.734Z,87.17
2018-11-26T15:21:21.231Z,87.09
2018-11-26T15:23:56.047Z,86.84
2018-11-26T15:26:30.877Z,87.02
2018-11-26T15:29:06.311Z,86.99
2018-11-26T15:31:40.961Z,86.90
2018-11-26T15:34:15.623Z,87.14
2018-11-26T15:36:50.628Z,87.13
2018-11-26T15:39:25.024Z,87.13
2018-11-26T15:41:59.627Z,87.09
2018-11-26T15:44:34.103Z,87.30
2018-11-26T15:47:09.259Z,87.43
2018-11-26T15:49:44.027Z,87.54
2018-11-26T15:52:18.490Z,87.51
2018-11-26T15:54:52.974Z,87.47
2018-11-26T15:57:27.734Z,87.21
2018-11-26T16:00:02.903Z,87.56
2018-11-26T16:02:37.834Z,87.56
2018-11-26T16:05:15.071Z,87.58
2018-11-26T16:07:50.390Z,87.63
2018-11-26T16:10:26.320Z,87.38
2018-11-26T16:13:02.059Z,87.65
2018-11-26T16:15:38.877Z,87.40
2018-11-26T16:18:16.219Z,87.36
2018-11-26T16:20:51.452Z,87.55
2018-11-26T16:23:26.051Z,87.86
2018-11-26T16:26:00.876Z,87.96
2018-11-26T16:28:35.429Z,87.65
2018-11-26T16:31:09.992Z,87.75
2018-11-26T16:33:44.915Z,88.01
2018-11-26T16:36:19.568Z,87.93
2018-11-26T16:38:53.838Z,87.85
2018-11-26T16:41:28.747Z,87.74
2018-11-26T16:44:03.975Z,87.87
2018-11-26T16:46:38.567Z,87.82
2018-11-26T16:49:12.990Z,87.94
2018-11-26T16:51:47.676Z,87.88
2018-11-26T16:54:22.397Z,88.17
2018-11-26T16:56:56.786Z,88.17
2018-11-26T16:59:32.134Z,87.73
2018-11-26T17:02:06.447Z,87.75
2018-11-26T17:04:41.481Z,87.89
2018-11-26T17:09:52.227Z,87.74
2018-11-26T17:12:26.799Z,88.02
2018-11-26T17:15:01.442Z,87.88
2018-11-26T17:17:35.887Z,88.12
2018-11-26T17:20:12.171Z,88.12
2018-11-26T17:22:47.008Z,88.07
2018-11-26T17:25:21.798Z,87.98
2018-11-26T17:27:56.931Z,88.05
2018-11-26T17:30:31.714Z,88.29
2018-11-26T17:33:07.928Z,88.30
2018-11-26T17:35:42.689Z,88.46
2018-11-26T17:38:17.435Z,88.50
2018-11-26T17:40:52.362Z,88.71
2018-11-26T17:43:26.861Z,88.66
2018-11-26T17:46:01.854Z,88.47
2018-11-26T17:48:36.179Z,88.53
2018-11-26T17:51:10.837Z,88.47
2018-11-26T17:53:45.272Z,88.42
2018-11-26T17:56:20.343Z,88.82
2018-11-26T17:58:54.754Z,88.70
2018-11-26T18:01:34.031Z,88.86
2018-11-26T18:04:09.815Z,88.98
2018-11-26T18:06:47.493Z,88.76
2018-11-26T18:09:22.834Z,88.42
2018-11-26T18:11:54.138Z,88.63
2018-11-26T18:14:28.759Z,88.82
2018-11-26T18:17:03.544Z,89.04
2018-11-26T18:19:37.998Z,88.75
2018-11-26T18:22:12.679Z,89.01
2018-11-26T18:24:47.452Z,88.81
2018-11-26T18:30:00.242Z,88.88
2018-11-26T18:32:34.963Z,88.63
2018-11-26T18:35:09.773Z,88.91
2018-11-26T18:37:44.387Z,88.98
2018-11-26T18:40:19.379Z,88.94
2018-11-26T18:42:54.060Z,88.83
2018-11-26T18:45:28.880Z,88.71
2018-11-26T18:48:03.697Z,88.75
2018-11-26T18:50:39.088Z,89.04
2018-11-26T18:53:13.438Z,89.11
2018-11-26T18:55:48.275Z,89.11
2018-11-26T18:58:23.610Z,88.78
2018-11-26T19:01:00.179Z,89.13
2018-11-26T19:03:34.692Z,89.24
2018-11-26T19:06:11.523Z,89.22
2018-11-26T19:08:47.139Z,88.97
2018-11-26T19:11:22.086Z,89.03
2018-11-26T19:14:03.536Z,89.24
2018-11-26T19:16:41.620Z,89.32
2018-11-26T19:19:15.944Z,88.95
2018-11-26T19:21:50.592Z,88.89
2018-11-26T19:24:25.447Z,89.41
2018-11-26T19:26:59.855Z,89.09
2018-11-26T19:29:34.730Z,89.55
2018-11-26T19:32:09.023Z,89.65
2018-11-26T19:34:45.955Z,89.22
2018-11-26T19:37:21.136Z,89.72
2018-11-26T19:39:55.655Z,89.26
2018-11-26T19:42:30.417Z,89.11
2018-11-26T19:45:07.966Z,88.83
2018-11-26T19:47:42.554Z,89.37
2018-11-26T19:50:18.373Z,89.34
2018-11-26T19:52:53.778Z,89.48
2018-11-26T19:55:28.244Z,89.52
2018-11-26T19:58:03.015Z,89.27
2018-11-26T20:00:37.943Z,89.17
2018-11-26T20:03:14.875Z,88.88
2018-11-26T20:06:06.599Z,88.84
2018-11-26T20:08:42.195Z,88.94
2018-11-26T20:11:17.010Z,89.02
2018-11-26T20:13:51.792Z,88.91
2018-11-26T20:16:35.126Z,89.25
2018-11-26T20:19:10.274Z,89.13
2018-11-26T20:21:44.743Z,89.29
2018-11-26T20:24:19.275Z,89.07
2018-11-26T20:26:53.722Z,89.22
2018-11-26T20:29:28.203Z,89.14
2018-11-26T20:32:04.478Z,89.00
2018-11-26T20:34:39.349Z,88.89
2018-11-26T20:37:16.205Z,89.17
2018-11-26T20:39:50.732Z,89.40
2018-11-26T20:42:25.229Z,89.24
2018-11-26T20:44:59.807Z,88.97
2018-11-26T20:47:34.915Z,88.92
2018-11-26T20:50:15.287Z,88.79
2018-11-26T20:52:50.537Z,88.82
2018-11-26T20:55:26.091Z,88.96
2018-11-26T20:58:00.911Z,88.74
2018-11-26T21:00:35.483Z,88.75
2018-11-26T21:03:11.270Z,88.50
2018-11-26T21:05:47.062Z,88.77
2018-11-26T21:08:21.479Z,88.64
2018-11-26T21:10:55.911Z,88.75
2018-11-26T21:13:30.238Z,89.19
2018-11-26T21:16:05.170Z,89.61
2018-11-26T21:18:39.515Z,89.66
2018-11-26T21:21:14.439Z,89.77
2018-11-26T21:23:48.806Z,89.48
2018-11-26T21:26:23.091Z,89.74
2018-11-26T21:28:57.983Z,89.50
2018-11-26T21:31:32.751Z,89.50
2018-11-26T21:34:07.239Z,89.38
2018-11-26T21:36:42.187Z,89.59
2018-11-26T21:39:16.631Z,89.51
2018-11-26T21:41:51.125Z,89.86
2018-11-26T21:44:25.591Z,90.03
2018-11-26T21:46:59.887Z,89.80
2018-11-26T21:49:34.437Z,89.82
2018-11-26T21:52:09.211Z,89.72
2018-11-26T21:54:43.853Z,89.47
2018-11-26T21:57:18.265Z,89.56
2018-11-26T21:59:52.608Z,89.38
2018-11-26T22:02:27.076Z,89.67
2018-11-26T22:05:01.482Z,89.86
2018-11-26T22:07:36.037Z,89.70
2018-11-26T22:10:12.658Z,89.58
2018-11-26T22:12:48.220Z,89.47
2018-11-26T22:15:23.042Z,89.68
2018-11-26T22:17:57.437Z,89.79
2018-11-26T22:20:32.431Z,89.36
2018-11-26T22:23:07.880Z,89.81
2018-11-26T22:25:42.273Z,89.85
2018-11-26T22:28:17.414Z,89.69
2018-11-26T22:30:55.451Z,89.23
2018-11-26T22:33:30.140Z,89.10
2018-11-26T22:36:04.970Z,89.24
2018-11-26T22:38:39.390Z,89.64
2018-11-26T22:41:14.006Z,89.42
2018-11-26T22:43:48.846Z,89.46
2018-11-26T22:46:23.139Z,89.37
2018-11-26T22:48:58.057Z,89.26
2018-11-26T22:51:32.711Z,89.26
2018-11-26T22:54:07.137Z,89.41
2018-11-26T22:56:42.032Z,89.17
2018-11-26T22:59:16.407Z,89.21
2018-11-26T23:01:53.888Z,89.41
2018-11-26T23:04:28.734Z,88.84
2018-11-26T23:07:03.766Z,89.40
2018-11-26T23:09:38.419Z,89.46
2018-11-26T23:12:13.586Z,89.01
2018-11-26T23:14:48.008Z,89.37
2018-11-26T23:17:23.019Z,89.19
2018-11-26T23:19:57.530Z,89.01
2018-11-26T23:22:31.931Z,88.79
2018-11-26T23:25:08.030Z,88.93
2018-11-26T23:27:42.807Z,89.01
2018-11-26T23:30:23.741Z,88.93
2018-11-26T23:33:01.115Z,88.89
2018-11-26T23:35:35.821Z,88.57
2018-11-26T23:38:10.607Z,88.96
2018-11-26T23:40:45.651Z,88.62
2018-11-26T23:43:20.055Z,89.27
2018-11-26T23:45:54.510Z,89.30
2018-11-26T23:48:29.046Z,89.74
2018-11-26T23:51:03.924Z,89.37
2018-11-26T23:53:38.679Z,89.31
2018-11-26T23:56:14.639Z,89.94
2018-11-26T23:58:49.051Z,89.85
